createdAt,value
2022-08-17T00:00:43.028Z,9.10
2022-08-17T00:01:51.795Z,9.30
2022-08-17T00:02:32.381Z,9.30
2022-08-17T00:03:32.331Z,9.10
2022-08-17T00:04:32.263Z,9.00
2022-08-17T00:05:32.244Z,10.30
2022-08-17T00:06:32.242Z,10.60
2022-08-17T00:07:32.241Z,9.80
2022-08-17T00:08:32.216Z,9.40
2022-08-17T00:09:32.322Z,9.60
2022-08-17T00:10:32.483Z,9.60
2022-08-17T00:11:32.171Z,9.60
2022-08-17T00:12:40.552Z,9.50
2022-08-17T00:13:32.176Z,9.90
2022-08-17T00:14:32.145Z,9.50
2022-08-17T00:15:32.117Z,10.70
2022-08-17T00:16:50.448Z,10.70
2022-08-17T00:17:32.094Z,10.00
2022-08-17T00:19:01.911Z,10.70
2022-08-17T00:19:32.127Z,10.50
2022-08-17T00:20:35.040Z,10.70
2022-08-17T00:21:56.067Z,10.40
2022-08-17T00:22:37.901Z,11.30
2022-08-17T00:23:32.020Z,10.50
2022-08-17T00:24:32.003Z,10.60
2022-08-17T00:25:31.982Z,10.70
2022-08-17T00:26:34.597Z,11.20
2022-08-17T00:27:31.962Z,11.50
2022-08-17T00:28:33.388Z,11.40
2022-08-17T00:29:31.938Z,10.90
2022-08-17T00:30:48.462Z,11.10
2022-08-17T00:31:31.905Z,11.00
2022-08-17T00:33:12.594Z,11.40
2022-08-17T00:33:31.883Z,11.30
2022-08-17T00:34:31.941Z,10.80
2022-08-17T00:35:31.850Z,12.20
2022-08-17T00:36:31.839Z,11.50
2022-08-17T00:37:31.841Z,12.20
2022-08-17T00:38:31.868Z,11.70
2022-08-17T00:39:31.921Z,12.20
2022-08-17T00:40:40.713Z,10.80
2022-08-17T00:41:31.785Z,11.50
2022-08-17T00:42:31.776Z,12.20
2022-08-17T00:43:31.781Z,12.30
2022-08-17T00:44:31.763Z,11.70
2022-08-17T00:45:31.767Z,11.90
2022-08-17T00:46:31.758Z,12.10
2022-08-17T00:47:31.687Z,12.30
2022-08-17T00:48:31.705Z,12.00
2022-08-17T00:49:31.928Z,12.10
2022-08-17T00:50:31.757Z,11.50
2022-08-17T00:51:31.645Z,12.50
2022-08-17T00:52:31.620Z,12.10
2022-08-17T00:53:31.624Z,12.40
2022-08-17T00:54:31.664Z,12.30
2022-08-17T00:55:32.424Z,12.00
2022-08-17T00:56:31.582Z,13.10
2022-08-17T00:57:31.571Z,13.30
2022-08-17T00:58:36.212Z,12.80
2022-08-17T00:59:31.541Z,12.70
2022-08-17T01:00:31.957Z,13.10
2022-08-17T01:01:31.581Z,12.90
2022-08-17T01:02:40.346Z,13.20
2022-08-17T01:03:31.521Z,13.00
2022-08-17T01:04:31.477Z,13.90
2022-08-17T01:05:31.504Z,13.60
2022-08-17T01:06:31.526Z,13.80
2022-08-17T01:07:31.439Z,13.90
2022-08-17T01:08:31.427Z,13.60
2022-08-17T01:09:31.416Z,12.90
2022-08-17T01:10:59.305Z,13.70
2022-08-17T01:11:31.408Z,14.20
2022-08-17T01:12:31.390Z,13.70
2022-08-17T01:13:32.815Z,13.60
2022-08-17T01:14:31.401Z,13.70
2022-08-17T01:15:31.318Z,13.50
2022-08-17T01:16:31.366Z,13.70
2022-08-17T01:17:31.365Z,13.20
2022-08-17T01:18:31.288Z,14.30
2022-08-17T01:19:31.264Z,14.00
2022-08-17T01:20:31.260Z,14.10
2022-08-17T01:21:31.241Z,14.60
2022-08-17T01:22:31.243Z,13.70
2022-08-17T01:23:31.212Z,13.70
2022-08-17T01:24:33.772Z,14.80
2022-08-17T01:25:31.209Z,13.20
2022-08-17T01:26:31.930Z,13.30
2022-08-17T01:27:31.160Z,13.90
2022-08-17T01:28:33.347Z,14.70
2022-08-17T01:29:31.164Z,14.10
2022-08-17T01:30:56.614Z,13.80
2022-08-17T01:31:31.124Z,14.30
2022-08-17T01:32:31.203Z,14.20
2022-08-17T01:33:31.078Z,14.00
2022-08-17T01:34:42.939Z,15.30
2022-08-17T01:35:31.084Z,15.40
2022-08-17T01:36:31.055Z,15.10
2022-08-17T01:37:31.062Z,14.90
2022-08-17T01:38:32.061Z,14.70
2022-08-17T01:39:31.121Z,13.60
2022-08-17T01:40:30.990Z,14.80
2022-08-17T01:41:30.981Z,15.40
2022-08-17T01:42:30.960Z,15.20
2022-08-17T01:43:30.974Z,15.60
2022-08-17T01:44:31.056Z,14.30
2022-08-17T01:45:30.930Z,14.10
2022-08-17T01:46:30.930Z,14.50
2022-08-17T01:47:31.153Z,14.80
2022-08-17T01:48:30.874Z,13.80
2022-08-17T01:49:30.966Z,14.40
2022-08-17T01:50:31.835Z,14.90
2022-08-17T01:51:30.853Z,14.30
2022-08-17T01:52:30.882Z,13.90
2022-08-17T01:53:30.913Z,13.90
2022-08-17T01:54:30.796Z,14.50
2022-08-17T01:55:30.935Z,13.90
2022-08-17T01:56:30.784Z,14.10
2022-08-17T01:57:30.755Z,14.20
2022-08-17T01:58:30.856Z,13.10
2022-08-17T01:59:30.727Z,14.80
2022-08-17T02:00:59.332Z,14.50
2022-08-17T02:01:30.770Z,14.50
2022-08-17T02:02:31.519Z,14.60
2022-08-17T02:03:30.675Z,14.60
2022-08-17T02:04:30.678Z,14.00
2022-08-17T02:05:30.759Z,14.10
2022-08-17T02:06:31.627Z,15.30
2022-08-17T02:07:30.638Z,15.70
2022-08-17T02:08:36.875Z,15.60
2022-08-17T02:09:30.619Z,15.00
2022-08-17T02:10:33.946Z,15.00
2022-08-17T02:11:30.585Z,15.90
2022-08-17T02:12:39.054Z,15.30
2022-08-17T02:13:30.550Z,15.50
2022-08-17T02:14:30.542Z,15.00
2022-08-17T02:15:30.527Z,15.40
2022-08-17T02:16:37.175Z,15.70
2022-08-17T02:17:30.572Z,15.50
2022-08-17T02:18:30.525Z,15.40
2022-08-17T02:19:30.494Z,15.60
2022-08-17T02:20:42.496Z,15.60
2022-08-17T02:21:30.492Z,15.60
2022-08-17T02:22:30.505Z,16.30
2022-08-17T02:23:31.357Z,16.40
2022-08-17T02:25:00.619Z,16.40
2022-08-17T02:25:30.388Z,17.50
2022-08-17T02:26:30.377Z,16.40
2022-08-17T02:27:30.353Z,16.40
2022-08-17T02:28:30.350Z,15.70
2022-08-17T02:29:30.951Z,15.40
2022-08-17T02:31:01.583Z,14.80
2022-08-17T02:31:30.347Z,14.60
2022-08-17T02:32:30.320Z,14.80
2022-08-17T02:33:37.278Z,16.10
2022-08-17T02:34:30.382Z,15.80
2022-08-17T02:35:30.251Z,15.70
2022-08-17T02:36:30.255Z,15.30
2022-08-17T02:37:30.234Z,16.30
2022-08-17T02:38:30.213Z,15.50
2022-08-17T02:39:30.277Z,15.50
2022-08-17T02:40:36.483Z,15.50
2022-08-17T02:41:30.185Z,15.60
2022-08-17T02:42:30.190Z,15.90
2022-08-17T02:43:30.146Z,17.30
2022-08-17T02:44:39.468Z,17.50
2022-08-17T02:45:30.130Z,16.00
2022-08-17T02:46:30.539Z,15.80
2022-08-17T02:47:30.118Z,16.70
2022-08-17T02:48:31.651Z,15.70
2022-08-17T02:49:30.065Z,16.50
2022-08-17T02:50:30.082Z,15.50
2022-08-17T02:51:30.057Z,17.30
2022-08-17T02:52:43.020Z,15.70
2022-08-17T02:53:35.562Z,17.90
2022-08-17T02:54:41.538Z,17.50
2022-08-17T02:55:29.991Z,15.90
2022-08-17T02:56:29.981Z,16.80
2022-08-17T02:57:29.964Z,16.30
2022-08-17T02:58:35.471Z,17.20
2022-08-17T02:59:29.991Z,16.30
2022-08-17T03:00:29.946Z,17.00
2022-08-17T03:01:29.965Z,16.20
2022-08-17T03:02:29.924Z,17.80
2022-08-17T03:03:29.895Z,16.30
2022-08-17T03:04:29.975Z,17.90
2022-08-17T03:05:29.853Z,16.80
2022-08-17T03:06:29.883Z,17.70
2022-08-17T03:07:29.832Z,18.00
2022-08-17T03:08:29.824Z,16.60
2022-08-17T03:09:29.806Z,17.90
2022-08-17T03:10:29.874Z,17.70
2022-08-17T03:11:29.774Z,18.20
2022-08-17T03:12:29.771Z,18.60
2022-08-17T03:13:29.746Z,18.10
2022-08-17T03:14:29.735Z,18.10
2022-08-17T03:15:29.715Z,18.90
2022-08-17T03:16:30.479Z,17.60
2022-08-17T03:17:30.639Z,17.60
2022-08-17T03:18:29.690Z,18.00
2022-08-17T03:19:29.670Z,18.40
2022-08-17T03:20:29.680Z,18.80
2022-08-17T03:21:29.656Z,18.00
2022-08-17T03:22:36.933Z,18.30
2022-08-17T03:23:30.342Z,18.70
2022-08-17T03:24:29.615Z,18.20
2022-08-17T03:25:29.587Z,19.10
2022-08-17T03:26:29.727Z,19.30
2022-08-17T03:27:29.565Z,18.80
2022-08-17T03:28:29.789Z,18.60
2022-08-17T03:29:29.916Z,18.10
2022-08-17T03:30:29.537Z,18.20
2022-08-17T03:31:29.526Z,17.70
2022-08-17T03:32:29.502Z,17.30
2022-08-17T03:33:29.510Z,18.70
2022-08-17T03:34:29.500Z,17.20
2022-08-17T03:35:29.456Z,17.10
2022-08-17T03:36:29.465Z,17.20
2022-08-17T03:37:29.429Z,18.80
2022-08-17T03:38:29.425Z,20.10
2022-08-17T03:39:29.478Z,19.90
2022-08-17T03:40:55.287Z,19.40
2022-08-17T03:41:29.412Z,19.70
2022-08-17T03:42:32.168Z,19.30
2022-08-17T03:43:29.398Z,19.70
2022-08-17T03:44:29.337Z,19.10
2022-08-17T03:45:29.334Z,18.20
2022-08-17T03:46:35.113Z,19.70
2022-08-17T03:47:29.539Z,19.60
2022-08-17T03:48:29.310Z,18.60
2022-08-17T03:49:29.276Z,19.20
2022-08-17T03:50:29.271Z,20.50
2022-08-17T03:51:29.260Z,18.80
2022-08-17T03:52:29.250Z,19.70
2022-08-17T03:53:29.884Z,20.30
2022-08-17T03:54:29.205Z,19.00
2022-08-17T03:55:35.879Z,20.20
2022-08-17T03:56:29.193Z,19.80
2022-08-17T03:57:29.181Z,20.30
2022-08-17T03:58:29.163Z,18.00
2022-08-17T03:59:29.145Z,19.90
2022-08-17T04:00:29.180Z,19.90
2022-08-17T04:01:29.177Z,20.30
2022-08-17T04:02:29.117Z,21.00
2022-08-17T04:03:29.128Z,20.00
2022-08-17T04:04:29.116Z,20.90
2022-08-17T04:05:29.068Z,21.00
2022-08-17T04:06:29.984Z,20.40
2022-08-17T04:07:29.041Z,21.50
2022-08-17T04:08:29.021Z,21.10
2022-08-17T04:09:29.017Z,20.90
2022-08-17T04:10:29.004Z,20.70
2022-08-17T04:11:29.076Z,22.30
2022-08-17T04:12:28.993Z,21.90
2022-08-17T04:13:29.006Z,21.10
2022-08-17T04:14:29.017Z,20.90
2022-08-17T04:15:28.945Z,21.50
2022-08-17T04:16:28.917Z,21.10
2022-08-17T04:17:29.896Z,22.20
2022-08-17T04:18:28.915Z,20.70
2022-08-17T04:19:28.887Z,20.90
2022-08-17T04:20:28.877Z,19.20
2022-08-17T04:21:28.859Z,18.70
2022-08-17T04:22:31.729Z,19.90
2022-08-17T04:23:28.839Z,20.10
2022-08-17T04:24:28.851Z,21.40
2022-08-17T04:25:28.813Z,21.00
2022-08-17T04:26:52.925Z,21.80
2022-08-17T04:27:28.789Z,20.50
2022-08-17T04:28:28.759Z,21.50
2022-08-17T04:29:28.838Z,20.00
2022-08-17T04:30:28.743Z,19.10
2022-08-17T04:31:28.727Z,19.60
2022-08-17T04:33:03.670Z,19.80
2022-08-17T04:33:28.710Z,19.90
2022-08-17T04:34:28.725Z,20.00
2022-08-17T04:35:28.729Z,20.10
2022-08-17T04:36:28.667Z,20.90
2022-08-17T04:37:28.664Z,21.60
2022-08-17T04:38:28.633Z,20.40
2022-08-17T04:39:28.676Z,20.10
2022-08-17T04:40:28.641Z,21.30
2022-08-17T04:41:28.610Z,21.90
2022-08-17T04:42:28.617Z,20.60
2022-08-17T04:43:28.616Z,22.30
2022-08-17T04:44:36.872Z,21.70
2022-08-17T04:45:31.963Z,21.50
2022-08-17T04:46:28.545Z,21.10
2022-08-17T04:47:28.634Z,21.50
2022-08-17T04:48:36.338Z,20.80
2022-08-17T04:49:28.535Z,20.70
2022-08-17T04:50:28.522Z,20.00
2022-08-17T04:51:28.460Z,19.50
2022-08-17T04:52:32.196Z,20.10
2022-08-17T04:53:28.458Z,19.60
2022-08-17T04:54:28.427Z,20.80
2022-08-17T04:55:28.454Z,20.90
2022-08-17T04:56:28.393Z,21.00
2022-08-17T04:57:28.389Z,20.60
2022-08-17T04:58:28.400Z,20.50
2022-08-17T04:59:28.371Z,21.10
2022-08-17T05:00:28.341Z,19.80
2022-08-17T05:01:28.409Z,22.40
2022-08-17T05:02:28.317Z,20.30
2022-08-17T05:03:28.310Z,20.40
2022-08-17T05:04:34.049Z,21.30
2022-08-17T05:05:28.292Z,21.40
2022-08-17T05:06:28.274Z,20.40
2022-08-17T05:07:31.386Z,20.20
2022-08-17T05:08:28.238Z,20.50
2022-08-17T05:09:28.226Z,18.70
2022-08-17T05:10:28.210Z,19.80
2022-08-17T05:11:28.247Z,20.30
2022-08-17T05:12:28.185Z,20.70
2022-08-17T05:13:28.185Z,19.80
2022-08-17T05:14:33.062Z,19.60
2022-08-17T05:15:28.154Z,20.10
2022-08-17T05:16:28.135Z,21.60
2022-08-17T05:17:28.134Z,22.60
2022-08-17T05:18:28.126Z,20.00
2022-08-17T05:19:28.122Z,19.20
2022-08-17T05:20:28.080Z,19.40
2022-08-17T05:21:28.078Z,20.00
2022-08-17T05:22:28.093Z,21.60
2022-08-17T05:23:41.690Z,20.80
2022-08-17T05:24:38.987Z,20.00
2022-08-17T05:25:28.029Z,18.90
2022-08-17T05:26:28.755Z,19.00
2022-08-17T05:27:32.915Z,19.30
2022-08-17T05:28:28.139Z,19.50
2022-08-17T05:29:33.747Z,17.70
2022-08-17T05:30:27.975Z,19.20
2022-08-17T05:31:28.085Z,17.80
2022-08-17T05:32:38.256Z,16.60
2022-08-17T05:33:27.927Z,17.60
2022-08-17T05:34:27.897Z,17.20
2022-08-17T05:35:27.894Z,17.20
2022-08-17T05:36:38.097Z,17.10
2022-08-17T05:37:27.876Z,18.00
2022-08-17T05:38:27.852Z,18.00
2022-08-17T05:39:28.198Z,17.40
2022-08-17T05:40:27.817Z,17.70
2022-08-17T05:41:27.816Z,16.70
2022-08-17T05:42:27.792Z,16.70
2022-08-17T05:43:27.786Z,16.60
2022-08-17T05:44:27.766Z,16.80
2022-08-17T05:45:54.344Z,17.40
2022-08-17T05:46:27.750Z,17.80
2022-08-17T05:47:27.733Z,17.10
2022-08-17T05:48:35.522Z,17.40
2022-08-17T05:49:27.712Z,16.90
2022-08-17T05:50:29.937Z,16.70
2022-08-17T05:51:27.701Z,15.90
2022-08-17T05:52:27.665Z,16.20
2022-08-17T05:53:27.655Z,17.50
2022-08-17T05:54:27.643Z,16.10
2022-08-17T05:55:27.638Z,16.20
2022-08-17T05:56:30.387Z,16.40
2022-08-17T05:57:27.618Z,15.10
2022-08-17T05:58:27.617Z,16.60
2022-08-17T05:59:27.578Z,16.40
2022-08-17T06:00:30.556Z,15.90
2022-08-17T06:01:27.633Z,14.40
2022-08-17T06:02:27.528Z,13.80
2022-08-17T06:03:27.583Z,15.30
2022-08-17T06:04:27.508Z,16.00
2022-08-17T06:05:27.520Z,15.40
2022-08-17T06:06:31.477Z,14.90
2022-08-17T06:07:27.476Z,16.10
2022-08-17T06:08:27.460Z,15.30
2022-08-17T06:09:32.982Z,15.40
2022-08-17T06:10:27.454Z,16.00
2022-08-17T06:11:27.443Z,16.00
2022-08-17T06:12:27.411Z,15.20
2022-08-17T06:13:27.400Z,16.10
2022-08-17T06:14:27.386Z,15.60
2022-08-17T06:15:27.379Z,15.10
2022-08-17T06:16:34.075Z,16.40
2022-08-17T06:17:27.350Z,16.10
2022-08-17T06:18:27.345Z,16.10
2022-08-17T06:19:27.331Z,16.20
2022-08-17T06:20:27.296Z,16.00
2022-08-17T06:21:30.544Z,16.10
2022-08-17T06:22:27.279Z,15.90
2022-08-17T06:23:27.264Z,15.80
2022-08-17T06:24:27.260Z,15.30
2022-08-17T06:25:27.244Z,15.50
2022-08-17T06:26:38.283Z,16.00
2022-08-17T06:27:27.224Z,15.30
2022-08-17T06:28:27.191Z,15.70
2022-08-17T06:29:27.212Z,14.80
2022-08-17T06:30:27.343Z,15.70
2022-08-17T06:31:27.168Z,15.20
2022-08-17T06:32:27.144Z,15.40
2022-08-17T06:33:27.151Z,15.40
2022-08-17T06:34:27.152Z,15.10
2022-08-17T06:35:31.951Z,14.60
2022-08-17T06:36:27.098Z,15.10
2022-08-17T06:37:27.084Z,14.80
2022-08-17T06:38:37.795Z,15.30
2022-08-17T06:39:27.266Z,15.60
2022-08-17T06:40:27.085Z,15.10
2022-08-17T06:41:27.039Z,15.20
2022-08-17T06:43:02.549Z,15.00
2022-08-17T06:43:27.149Z,14.70
2022-08-17T06:44:43.682Z,14.70
2022-08-17T06:45:26.983Z,14.40
2022-08-17T06:46:27.012Z,13.80
2022-08-17T06:47:28.391Z,13.70
2022-08-17T06:48:26.934Z,13.60
2022-08-17T06:49:27.018Z,14.00
2022-08-17T06:50:27.127Z,12.80
2022-08-17T06:51:27.104Z,13.80
2022-08-17T06:52:43.386Z,12.90
2022-08-17T06:53:26.883Z,12.90
2022-08-17T06:54:26.867Z,13.70
2022-08-17T06:55:26.853Z,13.30
2022-08-17T06:56:27.011Z,13.20
2022-08-17T06:57:26.821Z,12.50
2022-08-17T06:58:29.585Z,12.80
2022-08-17T06:59:53.189Z,12.50
2022-08-17T07:00:26.929Z,12.00
2022-08-17T07:01:26.888Z,11.70
2022-08-17T07:02:29.098Z,11.20
2022-08-17T07:03:26.797Z,11.60
2022-08-17T07:04:26.724Z,11.30
2022-08-17T07:05:29.567Z,11.10
2022-08-17T07:06:26.701Z,11.70
2022-08-17T07:07:26.684Z,10.90
2022-08-17T07:08:30.571Z,10.70
2022-08-17T07:09:26.686Z,10.20
2022-08-17T07:10:26.710Z,10.30
2022-08-17T07:11:26.629Z,9.90
2022-08-17T07:12:26.900Z,9.70
2022-08-17T07:13:26.622Z,9.90
2022-08-17T07:14:26.666Z,9.40
2022-08-17T07:15:26.581Z,9.60
2022-08-17T07:16:26.570Z,8.80
2022-08-17T07:17:46.867Z,8.30
2022-08-17T07:18:26.544Z,8.70
2022-08-17T07:19:26.529Z,8.60
2022-08-17T07:20:26.516Z,7.90
2022-08-17T07:21:26.878Z,8.30
2022-08-17T07:22:26.552Z,8.20
2022-08-17T07:23:26.475Z,8.20
2022-08-17T07:24:30.106Z,8.50
2022-08-17T07:25:26.515Z,8.50
2022-08-17T07:26:26.760Z,8.10
2022-08-17T07:27:26.440Z,7.50
2022-08-17T07:28:26.439Z,8.00
2022-08-17T07:29:26.395Z,7.70
2022-08-17T07:30:26.396Z,7.30
2022-08-17T07:31:26.381Z,7.40
2022-08-17T07:32:26.377Z,6.60
2022-08-17T07:33:26.394Z,7.20
2022-08-17T07:34:26.322Z,6.30
2022-08-17T07:35:37.651Z,6.00
2022-08-17T07:36:29.800Z,6.50
2022-08-17T07:37:26.297Z,6.30
2022-08-17T07:38:27.103Z,6.10
2022-08-17T07:39:26.327Z,6.20
2022-08-17T07:40:26.431Z,6.20
2022-08-17T07:41:26.253Z,6.40
2022-08-17T07:42:26.268Z,6.60
2022-08-17T07:43:26.256Z,7.00
2022-08-17T07:44:26.190Z,6.90
2022-08-17T07:45:26.227Z,6.50
2022-08-17T07:46:26.206Z,6.50
2022-08-17T07:47:26.171Z,6.10
2022-08-17T07:48:26.149Z,6.40
2022-08-17T07:49:26.136Z,6.10
2022-08-17T07:50:26.307Z,6.70
2022-08-17T07:51:26.175Z,6.20
2022-08-17T07:52:51.126Z,6.70
2022-08-17T07:53:26.104Z,5.70
2022-08-17T07:54:26.065Z,6.10
2022-08-17T07:55:26.085Z,6.00
2022-08-17T07:56:26.037Z,6.10
2022-08-17T07:57:29.891Z,6.30
2022-08-17T07:58:27.081Z,5.70
2022-08-17T07:59:33.219Z,5.50
2022-08-17T08:00:31.479Z,5.30
2022-08-17T08:01:26.099Z,5.60
2022-08-17T08:02:31.979Z,6.40
2022-08-17T08:03:26.161Z,5.50
2022-08-17T08:04:58.941Z,6.20
2022-08-17T08:05:48.826Z,5.70
2022-08-17T08:06:25.956Z,5.80
2022-08-17T08:07:26.725Z,5.60
2022-08-17T08:08:25.885Z,6.50
2022-08-17T08:09:25.954Z,5.80
2022-08-17T08:10:25.903Z,6.80
2022-08-17T08:11:25.866Z,6.10
2022-08-17T08:12:25.999Z,6.20
2022-08-17T08:13:25.870Z,6.00
2022-08-17T08:14:28.270Z,6.00
2022-08-17T08:15:25.866Z,5.80
2022-08-17T08:16:25.963Z,6.20
2022-08-17T08:17:25.783Z,5.80
2022-08-17T08:18:39.734Z,5.40
2022-08-17T08:19:25.747Z,5.50
2022-08-17T08:20:52.348Z,5.00
2022-08-17T08:21:25.737Z,5.90
2022-08-17T08:22:25.766Z,5.40
2022-08-17T08:23:25.693Z,5.20
2022-08-17T08:24:25.674Z,6.00
2022-08-17T08:25:28.865Z,5.00
2022-08-17T08:26:25.657Z,5.30
2022-08-17T08:27:25.636Z,5.30
2022-08-17T08:28:25.617Z,6.00
2022-08-17T08:29:25.648Z,5.60
2022-08-17T08:30:25.630Z,5.30
2022-08-17T08:31:25.647Z,5.50
2022-08-17T08:32:25.571Z,5.50
2022-08-17T08:33:25.552Z,5.70
2022-08-17T08:34:58.907Z,5.40
2022-08-17T08:35:25.583Z,5.90
2022-08-17T08:37:15.934Z,5.70
2022-08-17T08:37:33.914Z,4.90
2022-08-17T08:38:26.779Z,5.60
2022-08-17T08:39:25.721Z,5.60
2022-08-17T08:40:25.479Z,5.70
2022-08-17T08:41:25.508Z,5.50
2022-08-17T08:42:25.458Z,5.90
2022-08-17T08:43:25.442Z,5.20
2022-08-17T08:45:00.998Z,5.30
2022-08-17T08:45:25.417Z,5.50
2022-08-17T08:46:25.411Z,5.50
2022-08-17T08:47:25.368Z,5.30
2022-08-17T08:48:46.302Z,5.10
2022-08-17T08:49:39.266Z,5.40
2022-08-17T08:50:37.167Z,5.80
2022-08-17T08:51:25.560Z,5.70
2022-08-17T08:52:25.305Z,5.20
2022-08-17T08:53:25.324Z,5.90
2022-08-17T08:54:26.729Z,5.60
2022-08-17T08:55:25.269Z,5.40
2022-08-17T08:56:26.191Z,5.70
2022-08-17T08:57:30.975Z,6.90
2022-08-17T08:58:31.632Z,8.00
2022-08-17T08:59:25.217Z,7.20
2022-08-17T09:00:25.205Z,7.20
2022-08-17T09:01:25.291Z,6.80
2022-08-17T09:02:25.311Z,6.90
2022-08-17T09:03:43.804Z,6.50
2022-08-17T09:04:25.940Z,6.80
2022-08-17T09:05:25.181Z,6.80
2022-08-17T09:06:33.496Z,6.60
2022-08-17T09:07:25.139Z,6.80
2022-08-17T09:08:25.155Z,7.10
2022-08-17T09:09:25.197Z,6.40
2022-08-17T09:10:25.064Z,6.40
2022-08-17T09:11:25.099Z,6.60
2022-08-17T09:12:25.098Z,7.00
2022-08-17T09:13:25.070Z,7.20
2022-08-17T09:14:28.833Z,5.90
2022-08-17T09:15:25.029Z,6.00
2022-08-17T09:16:24.991Z,6.40
2022-08-17T09:17:24.981Z,6.40
2022-08-17T09:19:02.550Z,6.10
2022-08-17T09:19:24.972Z,6.40
2022-08-17T09:20:28.182Z,7.20
2022-08-17T09:21:24.953Z,6.70
2022-08-17T09:22:24.908Z,6.40
2022-08-17T09:23:24.898Z,6.70
2022-08-17T09:24:24.904Z,6.30
2022-08-17T09:25:24.936Z,6.50
2022-08-17T09:26:24.873Z,6.20
2022-08-17T09:27:24.879Z,6.70
2022-08-17T09:28:24.878Z,6.40
2022-08-17T09:29:24.830Z,6.40
2022-08-17T09:30:24.814Z,6.50
2022-08-17T09:31:26.038Z,5.70
2022-08-17T09:32:24.812Z,6.70
2022-08-17T09:33:24.820Z,6.30
2022-08-17T09:34:28.197Z,6.60
2022-08-17T09:35:24.787Z,6.30
2022-08-17T09:36:24.759Z,6.60
2022-08-17T09:37:24.726Z,6.60
2022-08-17T09:38:28.027Z,6.40
2022-08-17T09:39:24.781Z,6.20
2022-08-17T09:40:24.727Z,6.40
2022-08-17T09:41:24.675Z,6.40
2022-08-17T09:42:24.665Z,6.50
2022-08-17T09:43:24.680Z,7.00
2022-08-17T09:44:24.631Z,6.90
2022-08-17T09:45:24.641Z,6.40
2022-08-17T09:46:24.621Z,5.90
2022-08-17T09:47:24.583Z,6.30
2022-08-17T09:48:24.607Z,6.60
2022-08-17T09:49:25.361Z,5.20
2022-08-17T09:50:55.263Z,5.60
2022-08-17T09:51:24.554Z,6.50
2022-08-17T09:52:24.581Z,6.00
2022-08-17T09:53:24.507Z,5.40
2022-08-17T09:54:38.461Z,5.70
2022-08-17T09:55:25.501Z,6.10
2022-08-17T09:56:24.493Z,5.90
2022-08-17T09:57:30.317Z,6.00
2022-08-17T09:58:29.028Z,5.90
2022-08-17T09:59:24.484Z,5.90
2022-08-17T10:00:24.444Z,5.50
2022-08-17T10:01:24.471Z,5.40
2022-08-17T10:02:24.426Z,5.80
2022-08-17T10:03:24.403Z,5.80
2022-08-17T10:04:29.310Z,5.60
2022-08-17T10:05:24.432Z,5.40
2022-08-17T10:06:24.341Z,5.20
2022-08-17T10:07:24.312Z,5.50
2022-08-17T10:08:25.241Z,5.50
2022-08-17T10:09:24.346Z,6.10
2022-08-17T10:10:24.298Z,6.50
2022-08-17T10:11:33.485Z,5.70
2022-08-17T10:12:29.906Z,5.80
2022-08-17T10:13:24.311Z,5.40
2022-08-17T10:14:36.768Z,5.50
2022-08-17T10:15:24.250Z,6.00
2022-08-17T10:16:24.234Z,6.30
2022-08-17T10:17:24.214Z,6.20
2022-08-17T10:18:24.190Z,6.10
2022-08-17T10:19:24.182Z,5.00
2022-08-17T10:20:24.231Z,5.50
2022-08-17T10:21:24.146Z,5.30
2022-08-17T10:22:35.137Z,5.20
2022-08-17T10:23:24.279Z,5.00
2022-08-17T10:24:24.157Z,4.90
2022-08-17T10:25:27.854Z,5.40
2022-08-17T10:26:24.105Z,4.50
2022-08-17T10:27:24.077Z,5.40
2022-08-17T10:28:28.834Z,5.40
2022-08-17T10:29:24.075Z,5.30
2022-08-17T10:30:24.049Z,5.10
2022-08-17T10:31:34.807Z,5.10
2022-08-17T10:32:24.001Z,5.50
2022-08-17T10:33:24.002Z,4.90
2022-08-17T10:34:24.027Z,5.50
2022-08-17T10:35:23.952Z,5.60
2022-08-17T10:36:23.957Z,6.30
2022-08-17T10:37:23.979Z,5.70
2022-08-17T10:38:24.592Z,5.30
2022-08-17T10:39:23.927Z,5.70
2022-08-17T10:40:23.911Z,5.70
2022-08-17T10:41:23.889Z,4.80
2022-08-17T10:42:30.768Z,5.20
2022-08-17T10:43:23.846Z,5.00
2022-08-17T10:44:39.578Z,4.70
2022-08-17T10:45:23.832Z,4.80
2022-08-17T10:46:31.035Z,5.10
2022-08-17T10:47:23.849Z,4.80
2022-08-17T10:48:23.786Z,5.10
2022-08-17T10:49:23.795Z,4.70
2022-08-17T10:50:23.797Z,5.30
2022-08-17T10:51:23.834Z,5.00
2022-08-17T10:52:24.952Z,5.00
2022-08-17T10:53:23.724Z,5.20
2022-08-17T10:54:23.752Z,4.70
2022-08-17T10:55:23.704Z,4.90
2022-08-17T10:56:23.739Z,5.40
2022-08-17T10:57:23.739Z,5.10
2022-08-17T10:58:23.656Z,5.50
2022-08-17T10:59:23.634Z,5.30
2022-08-17T11:00:27.503Z,5.30
2022-08-17T11:01:23.757Z,5.40
2022-08-17T11:02:23.619Z,5.10
2022-08-17T11:03:23.583Z,4.90
2022-08-17T11:04:23.610Z,4.80
2022-08-17T11:05:23.602Z,5.00
2022-08-17T11:06:23.553Z,4.90
2022-08-17T11:07:23.556Z,4.80
2022-08-17T11:08:23.593Z,4.70
2022-08-17T11:09:23.543Z,5.00
2022-08-17T11:10:23.567Z,5.00
2022-08-17T11:11:23.489Z,4.60
2022-08-17T11:12:23.517Z,4.90
2022-08-17T11:13:23.507Z,4.70
2022-08-17T11:14:23.454Z,4.90
2022-08-17T11:15:23.623Z,4.40
2022-08-17T11:16:23.457Z,4.30
2022-08-17T11:17:23.396Z,4.60
2022-08-17T11:18:23.407Z,4.60
2022-08-17T11:19:23.445Z,4.60
2022-08-17T11:20:23.400Z,5.00
2022-08-17T11:21:23.344Z,5.10
2022-08-17T11:22:23.342Z,4.90
2022-08-17T11:23:23.326Z,5.00
2022-08-17T11:24:23.320Z,4.90
2022-08-17T11:25:23.351Z,5.10
2022-08-17T11:26:24.105Z,4.70
2022-08-17T11:27:23.342Z,4.80
2022-08-17T11:28:23.263Z,4.20
2022-08-17T11:29:24.846Z,4.40
2022-08-17T11:30:23.239Z,4.20
2022-08-17T11:31:23.287Z,4.20
2022-08-17T11:32:23.225Z,4.70
2022-08-17T11:33:23.294Z,4.70
2022-08-17T11:34:23.192Z,4.80
2022-08-17T11:35:23.165Z,4.30
2022-08-17T11:36:23.165Z,4.50
2022-08-17T11:37:23.133Z,4.20
2022-08-17T11:38:23.158Z,4.60
2022-08-17T11:39:24.882Z,4.40
2022-08-17T11:40:23.133Z,4.00
2022-08-17T11:41:23.084Z,4.40
2022-08-17T11:42:23.077Z,4.20
2022-08-17T11:43:25.423Z,4.20
2022-08-17T11:44:23.315Z,4.70
2022-08-17T11:45:32.479Z,4.60
2022-08-17T11:46:23.418Z,4.50
2022-08-17T11:47:23.015Z,4.40
2022-08-17T11:48:28.333Z,4.30
2022-08-17T11:49:23.068Z,4.60
2022-08-17T11:50:27.884Z,4.00
2022-08-17T11:51:22.983Z,4.60
2022-08-17T11:52:22.954Z,4.60
2022-08-17T11:53:22.954Z,4.60
2022-08-17T11:54:32.891Z,4.40
2022-08-17T11:55:35.105Z,3.90
2022-08-17T11:56:22.967Z,4.00
2022-08-17T11:57:22.890Z,4.30
2022-08-17T11:58:22.868Z,4.60
2022-08-17T11:59:22.861Z,4.50
2022-08-17T12:00:23.038Z,4.50
2022-08-17T12:01:22.822Z,4.20
2022-08-17T12:02:22.917Z,4.50
2022-08-17T12:03:22.838Z,4.40
2022-08-17T12:04:22.895Z,4.40
2022-08-17T12:05:22.761Z,4.90
2022-08-17T12:06:22.813Z,4.50
2022-08-17T12:07:22.753Z,5.30
2022-08-17T12:08:22.726Z,4.50
2022-08-17T12:09:22.717Z,4.90
2022-08-17T12:10:25.699Z,4.80
2022-08-17T12:11:58.698Z,4.70
2022-08-17T12:12:22.730Z,5.30
2022-08-17T12:13:22.671Z,4.70
2022-08-17T12:14:35.690Z,4.80
2022-08-17T12:15:22.677Z,4.70
2022-08-17T12:16:22.615Z,4.20
2022-08-17T12:17:40.118Z,5.00
2022-08-17T12:18:22.591Z,5.20
2022-08-17T12:19:22.582Z,5.20
2022-08-17T12:20:22.597Z,5.60
2022-08-17T12:21:22.601Z,4.70
2022-08-17T12:22:23.290Z,4.40
2022-08-17T12:23:22.527Z,4.80
2022-08-17T12:24:22.529Z,4.90
2022-08-17T12:25:22.576Z,4.60
2022-08-17T12:26:22.782Z,4.60
2022-08-17T12:27:48.946Z,4.60
2022-08-17T12:28:23.042Z,4.50
2022-08-17T12:29:35.962Z,4.40
2022-08-17T12:30:22.457Z,4.60
2022-08-17T12:31:22.466Z,4.60
2022-08-17T12:32:22.411Z,4.60
2022-08-17T12:33:25.046Z,4.40
2022-08-17T12:34:22.392Z,4.20
2022-08-17T12:35:22.387Z,4.80
2022-08-17T12:36:22.418Z,4.80
2022-08-17T12:37:22.348Z,4.40
2022-08-17T12:38:32.383Z,4.90
2022-08-17T12:39:22.367Z,4.60
2022-08-17T12:40:22.380Z,4.70
2022-08-17T12:41:22.491Z,4.80
2022-08-17T12:42:22.274Z,4.90
2022-08-17T12:43:22.290Z,4.60
2022-08-17T12:44:22.240Z,5.50
2022-08-17T12:45:22.372Z,5.10
2022-08-17T12:46:22.253Z,5.70
2022-08-17T12:47:23.248Z,5.60
2022-08-17T12:48:22.227Z,5.60
2022-08-17T12:49:22.197Z,5.10
2022-08-17T12:50:29.798Z,5.60
2022-08-17T12:51:22.168Z,6.00
2022-08-17T12:52:22.148Z,5.80
2022-08-17T12:53:22.196Z,5.90
2022-08-17T12:54:22.179Z,6.10
2022-08-17T12:55:22.120Z,6.10
2022-08-17T12:56:22.305Z,6.00
2022-08-17T12:57:22.080Z,6.20
2022-08-17T12:58:22.057Z,6.20
2022-08-17T12:59:30.399Z,5.80
2022-08-17T13:00:22.143Z,5.90
2022-08-17T13:01:22.265Z,6.20
2022-08-17T13:02:22.075Z,6.00
2022-08-17T13:03:21.988Z,5.80
2022-08-17T13:04:21.981Z,5.90